createdAt,value
2023-06-17T00:00:43.142Z,1406.00
2023-06-17T00:01:42.924Z,1401.00
2023-06-17T00:02:42.934Z,1394.00
2023-06-17T00:03:43.020Z,1402.00
2023-06-17T00:04:42.920Z,1399.00
2023-06-17T00:05:42.903Z,1395.00
2023-06-17T00:06:42.892Z,1377.00
2023-06-17T00:07:42.884Z,1382.00
2023-06-17T00:08:42.878Z,1376.00
2023-06-17T00:09:42.869Z,1373.00
2023-06-17T00:10:42.864Z,1370.00
2023-06-17T00:11:42.868Z,1388.00
2023-06-17T00:12:42.850Z,1380.00
2023-06-17T00:13:42.845Z,1378.00
2023-06-17T00:14:42.832Z,1371.00
2023-06-17T00:15:42.826Z,1370.00
2023-06-17T00:16:42.821Z,1362.00
2023-06-17T00:17:42.842Z,1369.00
2023-06-17T00:18:42.813Z,1360.00
2023-06-17T00:19:42.801Z,1374.00
2023-06-17T00:20:42.790Z,1370.00
2023-06-17T00:21:42.784Z,1356.00
2023-06-17T00:22:42.789Z,1367.00
2023-06-17T00:23:42.861Z,1369.00
2023-06-17T00:24:42.784Z,1356.00
2023-06-17T00:25:42.775Z,1362.00
2023-06-17T00:26:42.754Z,1365.00
2023-06-17T00:27:42.749Z,1357.00
2023-06-17T00:28:42.745Z,1358.00
2023-06-17T00:29:42.736Z,1358.00
2023-06-17T00:30:42.737Z,1351.00
2023-06-17T00:31:42.718Z,1350.00
2023-06-17T00:32:42.751Z,1351.00
2023-06-17T00:33:42.712Z,1352.00
2023-06-17T00:34:42.696Z,1359.00
2023-06-17T00:35:42.701Z,1363.00
2023-06-17T00:36:42.689Z,1363.00
2023-06-17T00:37:42.679Z,1343.00
2023-06-17T00:38:42.675Z,1345.00
2023-06-17T00:39:42.664Z,1347.00
2023-06-17T00:40:42.661Z,1353.00
2023-06-17T00:41:42.646Z,1361.00
2023-06-17T00:42:42.650Z,1355.00
2023-06-17T00:43:42.653Z,1337.00
2023-06-17T00:44:42.636Z,1338.00
2023-06-17T00:45:42.631Z,1340.00
2023-06-17T00:46:42.678Z,1345.00
2023-06-17T00:47:42.661Z,1336.00
2023-06-17T00:48:42.615Z,1334.00
2023-06-17T00:49:42.605Z,1329.00
2023-06-17T00:50:42.598Z,1345.00
2023-06-17T00:51:42.586Z,1332.00
2023-06-17T00:52:43.211Z,1329.00
2023-06-17T00:53:42.581Z,1329.00
2023-06-17T00:54:42.577Z,1317.00
2023-06-17T00:55:42.564Z,1325.00
2023-06-17T00:56:42.565Z,1333.00
2023-06-17T00:57:42.571Z,1335.00
2023-06-17T00:58:42.590Z,1326.00
2023-06-17T00:59:42.601Z,1322.00
2023-06-17T01:00:42.623Z,1322.00
2023-06-17T01:01:42.648Z,1324.00
2023-06-17T01:02:42.737Z,1320.00
2023-06-17T01:03:42.765Z,1311.00
2023-06-17T01:04:42.693Z,1323.00
2023-06-17T01:05:42.713Z,1318.00
2023-06-17T01:06:42.729Z,1326.00
2023-06-17T01:07:42.756Z,1313.00
2023-06-17T01:08:42.779Z,1293.00
2023-06-17T01:09:42.786Z,1315.00
2023-06-17T01:10:42.799Z,1296.00
2023-06-17T01:11:42.820Z,1301.00
2023-06-17T01:12:42.848Z,1310.00
2023-06-17T01:13:42.866Z,1283.00
2023-06-17T01:14:42.896Z,1296.00
2023-06-17T01:15:42.963Z,1295.00
2023-06-17T01:16:43.065Z,1302.00
2023-06-17T01:17:43.019Z,1296.00
2023-06-17T01:18:42.983Z,1292.00
2023-06-17T01:19:43.032Z,1290.00
2023-06-17T01:20:43.028Z,1304.00
2023-06-17T01:21:43.060Z,1290.00
2023-06-17T01:22:43.083Z,1297.00
2023-06-17T01:23:43.102Z,1305.00
2023-06-17T01:24:43.117Z,1295.00
2023-06-17T01:25:44.146Z,1286.00
2023-06-17T01:26:43.142Z,1282.00
2023-06-17T01:27:43.164Z,1285.00
2023-06-17T01:28:43.180Z,1275.00
2023-06-17T01:29:43.201Z,1269.00
2023-06-17T01:30:43.221Z,1269.00
2023-06-17T01:31:43.238Z,1271.00
2023-06-17T01:32:43.338Z,1255.00
2023-06-17T01:33:43.278Z,1278.00
2023-06-17T01:34:43.295Z,1267.00
2023-06-17T01:35:43.306Z,1271.00
2023-06-17T01:36:44.049Z,1257.00
2023-06-17T01:37:43.364Z,1269.00
2023-06-17T01:38:43.399Z,1258.00
2023-06-17T01:39:43.395Z,1259.00
2023-06-17T01:40:43.408Z,1279.00
2023-06-17T01:41:43.409Z,1257.00
2023-06-17T01:42:43.457Z,1267.00
2023-06-17T01:43:43.454Z,1270.00
2023-06-17T01:44:43.485Z,1260.00
2023-06-17T01:45:43.504Z,1259.00
2023-06-17T01:46:43.528Z,1257.00
2023-06-17T01:47:43.584Z,1265.00
2023-06-17T01:48:43.568Z,1252.00
2023-06-17T01:49:43.592Z,1246.00
2023-06-17T01:50:43.610Z,1262.00
2023-06-17T01:51:43.639Z,1256.00
2023-06-17T01:52:43.666Z,1238.00
2023-06-17T01:53:43.690Z,1248.00
2023-06-17T01:54:43.705Z,1253.00
2023-06-17T01:55:43.736Z,1235.00
2023-06-17T01:56:43.747Z,1243.00
2023-06-17T01:57:43.784Z,1256.00
2023-06-17T01:58:43.821Z,1252.00
2023-06-17T01:59:43.830Z,1241.00
2023-06-17T02:00:43.854Z,1239.00
2023-06-17T02:01:43.875Z,1230.00
2023-06-17T02:02:43.957Z,1240.00
2023-06-17T02:03:44.025Z,1228.00
2023-06-17T02:04:43.949Z,1263.00
2023-06-17T02:05:43.982Z,1249.00
2023-06-17T02:06:44.000Z,1251.00
2023-06-17T02:07:44.039Z,1244.00
2023-06-17T02:08:44.060Z,1250.00
2023-06-17T02:09:44.085Z,1251.00
2023-06-17T02:10:44.115Z,1250.00
2023-06-17T02:11:44.141Z,1243.00
2023-06-17T02:12:44.150Z,1226.00
2023-06-17T02:13:44.183Z,1217.00
2023-06-17T02:14:44.205Z,1229.00
2023-06-17T02:15:44.316Z,1214.00
2023-06-17T02:16:44.235Z,1232.00
2023-06-17T02:17:44.338Z,1216.00
2023-06-17T02:18:44.284Z,1215.00
2023-06-17T02:19:44.309Z,1227.00
2023-06-17T02:20:44.347Z,1213.00
2023-06-17T02:21:44.365Z,1234.00
2023-06-17T02:22:44.385Z,1227.00
2023-06-17T02:23:44.418Z,1217.00
2023-06-17T02:24:44.433Z,1225.00
2023-06-17T02:25:44.451Z,1218.00
2023-06-17T02:26:44.484Z,1217.00
2023-06-17T02:27:44.508Z,1235.00
2023-06-17T02:28:44.531Z,1220.00
2023-06-17T02:29:44.535Z,1199.00
2023-06-17T02:30:44.555Z,1218.00
2023-06-17T02:31:44.634Z,1216.00
2023-06-17T02:32:44.604Z,1203.00
2023-06-17T02:33:44.623Z,1218.00
2023-06-17T02:34:44.631Z,1213.00
2023-06-17T02:35:44.680Z,1193.00
2023-06-17T02:36:44.681Z,1215.00
2023-06-17T02:37:44.716Z,1200.00
2023-06-17T02:38:44.704Z,1215.00
2023-06-17T02:39:44.729Z,1201.00
2023-06-17T02:40:44.753Z,1211.00
2023-06-17T02:41:44.766Z,1209.00
2023-06-17T02:42:44.795Z,1195.00
2023-06-17T02:43:44.817Z,1201.00
2023-06-17T02:44:44.832Z,1188.00
2023-06-17T02:45:44.870Z,1198.00
2023-06-17T02:46:44.998Z,1198.00
2023-06-17T02:47:44.947Z,1193.00
2023-06-17T02:48:44.967Z,1198.00
2023-06-17T02:49:44.984Z,1183.00
2023-06-17T02:50:45.020Z,1179.00
2023-06-17T02:51:45.045Z,1173.00
2023-06-17T02:52:45.079Z,1188.00
2023-06-17T02:53:45.116Z,1188.00
2023-06-17T02:54:45.131Z,1188.00
2023-06-17T02:55:45.155Z,1181.00
2023-06-17T02:56:45.187Z,1187.00
2023-06-17T02:57:45.220Z,1184.00
2023-06-17T02:58:45.246Z,1189.00
2023-06-17T02:59:45.262Z,1169.00
2023-06-17T03:00:45.321Z,1182.00
2023-06-17T03:01:45.337Z,1190.00
2023-06-17T03:02:45.557Z,1175.00
2023-06-17T03:03:45.364Z,1182.00
2023-06-17T03:04:45.392Z,1187.00
2023-06-17T03:05:45.420Z,1183.00
2023-06-17T03:06:45.446Z,1187.00
2023-06-17T03:07:45.476Z,1186.00
2023-06-17T03:08:45.492Z,1177.00
2023-06-17T03:09:45.508Z,1191.00
2023-06-17T03:10:45.538Z,1192.00
2023-06-17T03:11:45.553Z,1185.00
2023-06-17T03:12:45.575Z,1187.00
2023-06-17T03:13:45.598Z,1187.00
2023-06-17T03:14:45.631Z,1176.00
2023-06-17T03:15:45.664Z,1169.00
2023-06-17T03:16:45.831Z,1169.00
2023-06-17T03:17:45.751Z,1173.00
2023-06-17T03:18:45.749Z,1181.00
2023-06-17T03:19:45.758Z,1175.00
2023-06-17T03:20:45.872Z,1160.00
2023-06-17T03:21:45.851Z,1180.00
2023-06-17T03:22:45.895Z,1160.00
2023-06-17T03:23:45.895Z,1162.00
2023-06-17T03:24:45.928Z,1158.00
2023-06-17T03:25:45.934Z,1156.00
2023-06-17T03:26:45.952Z,1150.00
2023-06-17T03:27:45.979Z,1174.00
2023-06-17T03:28:46.005Z,1149.00
2023-06-17T03:29:46.028Z,1158.00
2023-06-17T03:30:46.092Z,1174.00
2023-06-17T03:31:46.086Z,1149.00
2023-06-17T03:32:46.155Z,1140.00
2023-06-17T03:33:46.134Z,1155.00
2023-06-17T03:34:46.154Z,1144.00
2023-06-17T03:35:46.201Z,1141.00
2023-06-17T03:36:46.219Z,1141.00
2023-06-17T03:37:46.256Z,1148.00
2023-06-17T03:38:46.281Z,1151.00
2023-06-17T03:39:46.289Z,1140.00
2023-06-17T03:40:46.322Z,1138.00
2023-06-17T03:41:46.366Z,1126.00
2023-06-17T03:42:46.379Z,1134.00
2023-06-17T03:43:46.406Z,1137.00
2023-06-17T03:44:46.435Z,1132.00
2023-06-17T03:45:46.461Z,1120.00
2023-06-17T03:46:46.477Z,1132.00
2023-06-17T03:47:46.569Z,1121.00
2023-06-17T03:48:46.534Z,1116.00
2023-06-17T03:49:46.557Z,1137.00
2023-06-17T03:50:46.570Z,1111.00
2023-06-17T03:51:46.605Z,1126.00
2023-06-17T03:52:46.626Z,1115.00
2023-06-17T03:53:46.654Z,1117.00
2023-06-17T03:54:46.677Z,1121.00
2023-06-17T03:55:46.746Z,1105.00
2023-06-17T03:56:46.733Z,1120.00
2023-06-17T03:57:46.775Z,1107.00
2023-06-17T03:58:46.798Z,1127.00
2023-06-17T03:59:46.819Z,1139.00
2023-06-17T04:00:46.846Z,1125.00
2023-06-17T04:01:46.867Z,1121.00
2023-06-17T04:02:47.014Z,1114.00
2023-06-17T04:03:47.111Z,1119.00
2023-06-17T04:04:46.948Z,1109.00
2023-06-17T04:05:46.994Z,1104.00
2023-06-17T04:06:47.025Z,1094.00
2023-06-17T04:07:47.055Z,1099.00
2023-06-17T04:08:47.087Z,1110.00
2023-06-17T04:10:01.713Z,1096.00
2023-06-17T04:10:48.106Z,1097.00
2023-06-17T04:11:47.101Z,1098.00
2023-06-17T04:12:47.105Z,1099.00
2023-06-17T04:13:47.102Z,1103.00
2023-06-17T04:14:47.086Z,1098.00
2023-06-17T04:15:47.086Z,1098.00
2023-06-17T04:16:47.076Z,1097.00
2023-06-17T04:17:47.123Z,1102.00
2023-06-17T04:18:47.076Z,1100.00
2023-06-17T04:19:47.047Z,1088.00
2023-06-17T04:20:47.060Z,1093.00
2023-06-17T04:21:47.041Z,1084.00
2023-06-17T04:22:47.032Z,1098.00
2023-06-17T04:23:47.026Z,1079.00
2023-06-17T04:24:47.018Z,1073.00
2023-06-17T04:25:47.008Z,1097.00
2023-06-17T04:26:47.020Z,1079.00
2023-06-17T04:27:47.063Z,1093.00
2023-06-17T04:28:47.092Z,1076.00
2023-06-17T04:29:47.134Z,1085.00
2023-06-17T04:30:47.165Z,1076.00
2023-06-17T04:31:47.181Z,1087.00
2023-06-17T04:32:47.261Z,1087.00
2023-06-17T04:33:47.252Z,1090.00
2023-06-17T04:34:47.273Z,1087.00
2023-06-17T04:35:47.313Z,1073.00
2023-06-17T04:36:47.328Z,1069.00
2023-06-17T04:37:47.354Z,1073.00
2023-06-17T04:38:47.380Z,1076.00
2023-06-17T04:39:47.407Z,1065.00
2023-06-17T04:40:47.437Z,1073.00
2023-06-17T04:41:47.484Z,1080.00
2023-06-17T04:42:47.491Z,1069.00
2023-06-17T04:43:47.516Z,1072.00
2023-06-17T04:44:47.535Z,1076.00
2023-06-17T04:45:47.571Z,1068.00
2023-06-17T04:46:47.633Z,1074.00
2023-06-17T04:47:47.671Z,1072.00
2023-06-17T04:48:47.653Z,1071.00
2023-06-17T04:49:47.666Z,1060.00
2023-06-17T04:50:47.679Z,1052.00
2023-06-17T04:51:47.705Z,1054.00
2023-06-17T04:52:47.734Z,1071.00
2023-06-17T04:53:47.770Z,1062.00
2023-06-17T04:54:47.794Z,1066.00
2023-06-17T04:55:47.821Z,1059.00
2023-06-17T04:56:47.830Z,1063.00
2023-06-17T04:57:47.871Z,1058.00
2023-06-17T04:58:47.904Z,1050.00
2023-06-17T04:59:47.929Z,1068.00
2023-06-17T05:00:47.979Z,1062.00
2023-06-17T05:01:47.989Z,1054.00
2023-06-17T05:02:48.051Z,1063.00
2023-06-17T05:03:48.063Z,1042.00
2023-06-17T05:04:48.041Z,1051.00
2023-06-17T05:05:48.063Z,1049.00
2023-06-17T05:06:48.084Z,1038.00
2023-06-17T05:07:48.093Z,1045.00
2023-06-17T05:08:48.119Z,1049.00
2023-06-17T05:09:48.129Z,1037.00
2023-06-17T05:10:48.147Z,1037.00
2023-06-17T05:11:48.161Z,1030.00
2023-06-17T05:12:48.176Z,1030.00
2023-06-17T05:13:48.211Z,1034.00
2023-06-17T05:14:48.225Z,1038.00
2023-06-17T05:15:48.248Z,1038.00
2023-06-17T05:16:48.313Z,1031.00
2023-06-17T05:17:48.368Z,1030.00
2023-06-17T05:18:48.316Z,1033.00
2023-06-17T05:19:48.322Z,1034.00
2023-06-17T05:20:48.362Z,1051.00
2023-06-17T05:21:48.363Z,1025.00
2023-06-17T05:22:48.387Z,1034.00
2023-06-17T05:23:48.528Z,1051.00
2023-06-17T05:24:48.430Z,1022.00
2023-06-17T05:25:48.438Z,1035.00
2023-06-17T05:26:48.441Z,1036.00
2023-06-17T05:27:48.441Z,1039.00
2023-06-17T05:28:48.464Z,1043.00
2023-06-17T05:29:48.472Z,1044.00
2023-06-17T05:30:48.601Z,1038.00
2023-06-17T05:31:48.472Z,1049.00
2023-06-17T05:32:48.614Z,1042.00
2023-06-17T05:33:48.501Z,1026.00
2023-06-17T05:34:48.500Z,1037.00
2023-06-17T05:35:48.508Z,1033.00
2023-06-17T05:36:48.519Z,1037.00
2023-06-17T05:37:48.528Z,1034.00
2023-06-17T05:38:48.539Z,1046.00
2023-06-17T05:39:48.543Z,1037.00
2023-06-17T05:40:48.544Z,1030.00
2023-06-17T05:41:48.558Z,1042.00
2023-06-17T05:42:48.561Z,1038.00
2023-06-17T05:43:48.570Z,1038.00
2023-06-17T05:44:48.574Z,1044.00
2023-06-17T05:45:48.622Z,1036.00
2023-06-17T05:46:48.600Z,1040.00
2023-06-17T05:47:48.705Z,1043.00
2023-06-17T05:48:48.617Z,1037.00
2023-06-17T05:49:48.626Z,1046.00
2023-06-17T05:50:48.634Z,1036.00
2023-06-17T05:51:48.640Z,1055.00
2023-06-17T05:52:48.632Z,1023.00
2023-06-17T05:53:48.645Z,1028.00
2023-06-17T05:54:49.229Z,1040.00
2023-06-17T05:55:48.670Z,1029.00
2023-06-17T05:56:48.659Z,1029.00
2023-06-17T05:57:48.664Z,1039.00
2023-06-17T05:58:48.690Z,1035.00
2023-06-17T05:59:48.705Z,1037.00
2023-06-17T06:00:48.689Z,1036.00
2023-06-17T06:01:48.747Z,1026.00
2023-06-17T06:02:48.707Z,1034.00
2023-06-17T06:03:48.748Z,1031.00
2023-06-17T06:04:48.700Z,1021.00
2023-06-17T06:05:48.692Z,1030.00
2023-06-17T06:06:48.699Z,1033.00
2023-06-17T06:07:48.716Z,1031.00
2023-06-17T06:08:48.752Z,1038.00
2023-06-17T06:09:48.747Z,1036.00
2023-06-17T06:10:48.746Z,1037.00
2023-06-17T06:11:48.757Z,1036.00
2023-06-17T06:12:48.737Z,1047.00
2023-06-17T06:13:48.740Z,1042.00
2023-06-17T06:14:48.740Z,1041.00
2023-06-17T06:15:48.843Z,1033.00
2023-06-17T06:16:48.778Z,1038.00
2023-06-17T06:17:48.769Z,1033.00
2023-06-17T06:18:48.720Z,1030.00
2023-06-17T06:19:48.714Z,1047.00
2023-06-17T06:20:48.757Z,1039.00
2023-06-17T06:21:48.753Z,1042.00
2023-06-17T06:22:48.780Z,1035.00
2023-06-17T06:23:48.822Z,1046.00
2023-06-17T06:24:48.790Z,1047.00
2023-06-17T06:25:48.773Z,1039.00
2023-06-17T06:26:48.769Z,1033.00
2023-06-17T06:27:48.778Z,1039.00
2023-06-17T06:28:48.797Z,1037.00
2023-06-17T06:29:48.778Z,1035.00
2023-06-17T06:30:48.771Z,1044.00
2023-06-17T06:31:48.786Z,1029.00
2023-06-17T06:32:48.921Z,1040.00
2023-06-17T06:33:48.823Z,1028.00
2023-06-17T06:34:48.830Z,1032.00
2023-06-17T06:35:48.830Z,1038.00
2023-06-17T06:36:48.866Z,1040.00
2023-06-17T06:37:48.856Z,1050.00
2023-06-17T06:38:48.851Z,1036.00
2023-06-17T06:39:48.856Z,1051.00
2023-06-17T06:40:48.886Z,1037.00
2023-06-17T06:41:48.886Z,1041.00
2023-06-17T06:42:48.874Z,1035.00
2023-06-17T06:43:48.915Z,1036.00
2023-06-17T06:44:48.911Z,1040.00
2023-06-17T06:45:48.952Z,1042.00
2023-06-17T06:46:48.936Z,1033.00
2023-06-17T06:47:48.973Z,1030.00
2023-06-17T06:48:48.996Z,1046.00
2023-06-17T06:49:49.009Z,1039.00
2023-06-17T06:50:49.043Z,1046.00
2023-06-17T06:51:49.090Z,1041.00
2023-06-17T06:52:49.108Z,1033.00
2023-06-17T06:53:49.125Z,1044.00
2023-06-17T06:54:49.126Z,1043.00
2023-06-17T06:55:49.128Z,1033.00
2023-06-17T06:56:49.140Z,1025.00
2023-06-17T06:57:49.171Z,1039.00
2023-06-17T06:58:49.189Z,1049.00
2023-06-17T06:59:52.304Z,1055.00
2023-06-17T07:00:49.237Z,1055.00
2023-06-17T07:01:49.218Z,1048.00
2023-06-17T07:02:49.244Z,1051.00
2023-06-17T07:03:49.203Z,1042.00
2023-06-17T07:04:49.526Z,1050.00
2023-06-17T07:05:49.193Z,1047.00
2023-06-17T07:06:49.177Z,1050.00
2023-06-17T07:07:49.178Z,1050.00
2023-06-17T07:08:49.177Z,1041.00
2023-06-17T07:09:49.163Z,1061.00
2023-06-17T07:10:49.150Z,1038.00
2023-06-17T07:11:49.150Z,1051.00
2023-06-17T07:12:49.140Z,1058.00
2023-06-17T07:13:49.136Z,1061.00
2023-06-17T07:14:49.124Z,1056.00
2023-06-17T07:15:49.132Z,1058.00
2023-06-17T07:16:49.256Z,1050.00
2023-06-17T07:17:49.112Z,1059.00
2023-06-17T07:18:49.089Z,1055.00
2023-06-17T07:19:49.094Z,1060.00
2023-06-17T07:20:49.091Z,1044.00
2023-06-17T07:21:49.074Z,1068.00
2023-06-17T07:22:49.078Z,1056.00
2023-06-17T07:23:49.113Z,1057.00
2023-06-17T07:24:49.058Z,1048.00
2023-06-17T07:25:49.077Z,1059.00
2023-06-17T07:26:49.108Z,1061.00
2023-06-17T07:27:49.048Z,1049.00
2023-06-17T07:28:49.041Z,1051.00
2023-06-17T07:29:49.039Z,1053.00
2023-06-17T07:30:49.069Z,1041.00
2023-06-17T07:31:49.051Z,1052.00
2023-06-17T07:32:49.057Z,1059.00
2023-06-17T07:33:49.000Z,1064.00
2023-06-17T07:34:48.995Z,1063.00
2023-06-17T07:35:48.988Z,1066.00
2023-06-17T07:36:48.994Z,1051.00
2023-06-17T07:37:48.976Z,1043.00
2023-06-17T07:38:48.971Z,1060.00
2023-06-17T07:39:48.968Z,1060.00
2023-06-17T07:40:48.959Z,1035.00
2023-06-17T07:41:48.944Z,1052.00
2023-06-17T07:42:48.938Z,1058.00
2023-06-17T07:43:48.937Z,1053.00
2023-06-17T07:44:48.924Z,1045.00
2023-06-17T07:45:48.927Z,1045.00
2023-06-17T07:46:49.086Z,1052.00
2023-06-17T07:47:49.050Z,1054.00
2023-06-17T07:48:49.039Z,1038.00
2023-06-17T07:49:49.104Z,1050.00
2023-06-17T07:50:49.147Z,1030.00
2023-06-17T07:51:49.191Z,1018.00
2023-06-17T07:52:49.251Z,1040.00
2023-06-17T07:53:49.325Z,1030.00
2023-06-17T07:54:49.382Z,1022.00
2023-06-17T07:55:49.395Z,1029.00
2023-06-17T07:56:49.433Z,1020.00
2023-06-17T07:57:49.492Z,1038.00
2023-06-17T07:58:49.562Z,1037.00
2023-06-17T07:59:49.586Z,1030.00
2023-06-17T08:00:49.632Z,1042.00
2023-06-17T08:01:49.738Z,1022.00
2023-06-17T08:02:49.780Z,1028.00
2023-06-17T08:03:49.865Z,1033.00
2023-06-17T08:04:49.783Z,1033.00
2023-06-17T08:05:49.877Z,1032.00
2023-06-17T08:06:49.878Z,1016.00
2023-06-17T08:07:49.938Z,1014.00
2023-06-17T08:08:49.998Z,1015.00
2023-06-17T08:09:50.042Z,1013.00
2023-06-17T08:10:50.118Z,1007.00
2023-06-17T08:11:50.145Z,1005.00
2023-06-17T08:12:50.199Z,1010.00
2023-06-17T08:13:50.248Z,1000.00
2023-06-17T08:14:50.286Z,993.00
2023-06-17T08:15:50.327Z,994.00
2023-06-17T08:16:50.430Z,984.00
2023-06-17T08:17:50.401Z,987.00
2023-06-17T08:18:50.448Z,993.00
2023-06-17T08:19:50.420Z,990.00
2023-06-17T08:20:50.438Z,976.00
2023-06-17T08:21:50.510Z,979.00
2023-06-17T08:22:50.529Z,985.00
2023-06-17T08:23:50.613Z,968.00
2023-06-17T08:24:50.622Z,957.00
2023-06-17T08:25:50.683Z,971.00
2023-06-17T08:26:50.744Z,975.00
2023-06-17T08:27:50.735Z,974.00
2023-06-17T08:28:50.752Z,972.00
2023-06-17T08:29:50.777Z,962.00
2023-06-17T08:30:50.820Z,956.00
2023-06-17T08:31:50.864Z,975.00
2023-06-17T08:32:50.872Z,967.00
2023-06-17T08:33:50.880Z,954.00
2023-06-17T08:34:50.886Z,950.00
2023-06-17T08:35:50.909Z,959.00
2023-06-17T08:36:50.956Z,961.00
2023-06-17T08:37:50.922Z,953.00
2023-06-17T08:38:50.914Z,947.00
2023-06-17T08:39:50.932Z,951.00
2023-06-17T08:40:50.948Z,969.00
2023-06-17T08:41:50.964Z,962.00
2023-06-17T08:42:51.013Z,956.00
2023-06-17T08:43:51.012Z,957.00
2023-06-17T08:44:51.030Z,955.00
2023-06-17T08:45:51.084Z,965.00
2023-06-17T08:46:51.019Z,941.00
2023-06-17T08:47:51.018Z,950.00
2023-06-17T08:48:51.027Z,952.00
2023-06-17T08:49:51.060Z,932.00
2023-06-17T08:50:51.112Z,928.00
2023-06-17T08:51:51.115Z,944.00
2023-06-17T08:52:53.739Z,944.00
2023-06-17T08:53:51.116Z,945.00
2023-06-17T08:54:51.102Z,945.00
2023-06-17T08:55:51.820Z,938.00
2023-06-17T08:56:51.096Z,949.00
2023-06-17T08:57:51.091Z,948.00
2023-06-17T08:58:51.075Z,931.00
2023-06-17T08:59:51.081Z,946.00
2023-06-17T09:00:51.108Z,950.00
2023-06-17T09:01:51.117Z,943.00
2023-06-17T09:02:51.101Z,940.00
2023-06-17T09:03:51.044Z,928.00
2023-06-17T09:04:51.082Z,926.00
2023-06-17T09:05:51.032Z,938.00
2023-06-17T09:06:51.025Z,940.00
2023-06-17T09:07:51.026Z,939.00
2023-06-17T09:08:51.014Z,930.00
2023-06-17T09:09:51.009Z,923.00
2023-06-17T09:10:50.999Z,936.00
2023-06-17T09:11:52.453Z,926.00
2023-06-17T09:12:50.986Z,923.00
2023-06-17T09:13:50.985Z,929.00
2023-06-17T09:14:50.979Z,934.00
2023-06-17T09:15:50.983Z,912.00
2023-06-17T09:16:51.032Z,924.00
2023-06-17T09:17:50.981Z,923.00
2023-06-17T09:18:50.946Z,907.00
2023-06-17T09:19:50.945Z,921.00
2023-06-17T09:20:50.930Z,929.00
2023-06-17T09:21:50.933Z,930.00
2023-06-17T09:22:50.930Z,922.00
2023-06-17T09:23:50.944Z,910.00
2023-06-17T09:24:50.913Z,906.00
2023-06-17T09:25:50.910Z,902.00
2023-06-17T09:26:50.898Z,920.00
2023-06-17T09:28:11.109Z,923.00
2023-06-17T09:28:51.928Z,924.00
2023-06-17T09:29:50.919Z,924.00
2023-06-17T09:30:50.912Z,927.00
2023-06-17T09:31:50.897Z,929.00
2023-06-17T09:32:50.986Z,922.00
2023-06-17T09:33:50.900Z,908.00
2023-06-17T09:34:50.902Z,909.00
2023-06-17T09:35:50.878Z,915.00
2023-06-17T09:36:50.867Z,922.00
2023-06-17T09:38:02.661Z,902.00
2023-06-17T09:38:51.858Z,903.00
2023-06-17T09:39:50.848Z,906.00
2023-06-17T09:40:50.869Z,909.00
2023-06-17T09:41:50.846Z,908.00
2023-06-17T09:42:50.838Z,920.00
2023-06-17T09:43:50.833Z,915.00
2023-06-17T09:44:50.818Z,894.00
2023-06-17T09:45:50.812Z,923.00
2023-06-17T09:46:50.878Z,917.00
2023-06-17T09:47:50.842Z,896.00
2023-06-17T09:48:50.805Z,915.00
2023-06-17T09:49:50.802Z,906.00
2023-06-17T09:50:50.805Z,901.00
2023-06-17T09:51:50.824Z,905.00
2023-06-17T09:52:51.841Z,899.00
2023-06-17T09:53:50.890Z,878.00
2023-06-17T09:54:50.901Z,895.00
2023-06-17T09:55:50.940Z,903.00
2023-06-17T09:56:50.950Z,893.00
2023-06-17T09:57:50.961Z,891.00
2023-06-17T09:58:50.972Z,891.00
2023-06-17T09:59:51.012Z,884.00
2023-06-17T10:00:51.023Z,884.00
2023-06-17T10:01:51.042Z,883.00
2023-06-17T10:02:51.122Z,888.00
2023-06-17T10:03:51.135Z,889.00
2023-06-17T10:04:51.069Z,886.00
2023-06-17T10:05:51.084Z,895.00
2023-06-17T10:06:51.104Z,882.00
2023-06-17T10:07:51.105Z,885.00
2023-06-17T10:08:51.108Z,878.00
2023-06-17T10:09:51.124Z,865.00
2023-06-17T10:10:51.115Z,878.00
2023-06-17T10:11:51.135Z,875.00
2023-06-17T10:12:51.128Z,877.00
2023-06-17T10:13:51.168Z,871.00
2023-06-17T10:14:51.168Z,879.00
2023-06-17T10:15:51.182Z,881.00
2023-06-17T10:16:51.193Z,883.00
2023-06-17T10:17:51.291Z,881.00
2023-06-17T10:18:51.261Z,882.00
2023-06-17T10:19:51.268Z,869.00
2023-06-17T10:20:51.284Z,864.00
2023-06-17T10:21:51.305Z,871.00
2023-06-17T10:22:51.353Z,864.00
2023-06-17T10:23:51.417Z,863.00
2023-06-17T10:24:51.419Z,880.00
2023-06-17T10:25:51.423Z,872.00
2023-06-17T10:26:51.484Z,852.00
2023-06-17T10:27:51.472Z,855.00
2023-06-17T10:28:51.495Z,855.00
2023-06-17T10:29:51.529Z,834.00
2023-06-17T10:30:51.536Z,864.00
2023-06-17T10:31:51.553Z,854.00
2023-06-17T10:32:52.479Z,862.00
2023-06-17T10:33:51.613Z,860.00
2023-06-17T10:34:51.622Z,848.00
2023-06-17T10:35:51.659Z,857.00
2023-06-17T10:36:51.703Z,852.00
2023-06-17T10:37:51.706Z,852.00
2023-06-17T10:38:51.734Z,850.00
2023-06-17T10:39:51.769Z,854.00
2023-06-17T10:40:51.794Z,846.00
2023-06-17T10:41:51.848Z,825.00
2023-06-17T10:42:51.850Z,849.00
2023-06-17T10:43:51.889Z,852.00
2023-06-17T10:44:51.901Z,844.00
2023-06-17T10:45:52.003Z,846.00
2023-06-17T10:46:51.955Z,842.00
2023-06-17T10:47:51.976Z,839.00
2023-06-17T10:48:52.012Z,839.00
2023-06-17T10:49:52.147Z,851.00
2023-06-17T10:50:52.080Z,859.00
2023-06-17T10:51:57.986Z,832.00
2023-06-17T10:52:53.103Z,834.00
2023-06-17T10:53:52.095Z,837.00
2023-06-17T10:54:52.105Z,843.00
2023-06-17T10:55:52.082Z,842.00
2023-06-17T10:56:52.074Z,863.00
2023-06-17T10:57:52.068Z,846.00
2023-06-17T10:58:52.066Z,835.00
2023-06-17T10:59:52.052Z,830.00
2023-06-17T11:00:52.039Z,842.00
2023-06-17T11:01:52.042Z,844.00
2023-06-17T11:02:52.165Z,847.00
2023-06-17T11:03:52.115Z,842.00
2023-06-17T11:04:52.062Z,835.00
2023-06-17T11:05:52.085Z,852.00
2023-06-17T11:06:52.121Z,838.00
2023-06-17T11:07:52.152Z,846.00
2023-06-17T11:08:52.179Z,838.00
2023-06-17T11:09:52.213Z,852.00
2023-06-17T11:10:52.238Z,834.00
2023-06-17T11:11:52.266Z,815.00
2023-06-17T11:12:52.298Z,837.00
2023-06-17T11:13:52.334Z,849.00
2023-06-17T11:14:52.373Z,820.00
2023-06-17T11:15:52.395Z,832.00
2023-06-17T11:16:52.522Z,828.00
2023-06-17T11:17:52.493Z,838.00
2023-06-17T11:18:52.505Z,817.00
2023-06-17T11:19:52.554Z,820.00
2023-06-17T11:20:52.604Z,822.00
2023-06-17T11:21:52.651Z,818.00
2023-06-17T11:22:52.697Z,820.00
2023-06-17T11:23:52.799Z,821.00
2023-06-17T11:24:52.817Z,801.00
2023-06-17T11:25:53.496Z,812.00
2023-06-17T11:26:52.885Z,811.00
2023-06-17T11:27:52.911Z,815.00
2023-06-17T11:28:52.973Z,797.00
2023-06-17T11:29:53.025Z,812.00
2023-06-17T11:30:53.100Z,814.00
2023-06-17T11:31:53.109Z,811.00
2023-06-17T11:32:53.191Z,796.00
2023-06-17T11:33:53.215Z,802.00
2023-06-17T11:34:53.265Z,814.00
2023-06-17T11:35:53.327Z,797.00
2023-06-17T11:36:53.386Z,810.00
2023-06-17T11:37:53.433Z,808.00
2023-06-17T11:38:53.516Z,808.00
2023-06-17T11:39:53.568Z,800.00
2023-06-17T11:40:53.620Z,813.00
2023-06-17T11:41:53.687Z,816.00
2023-06-17T11:42:53.730Z,793.00
2023-06-17T11:43:53.781Z,814.00
2023-06-17T11:44:53.838Z,801.00
2023-06-17T11:45:53.896Z,799.00
2023-06-17T11:46:53.956Z,787.00
2023-06-17T11:47:54.038Z,787.00
2023-06-17T11:48:54.044Z,792.00
2023-06-17T11:49:54.085Z,782.00
2023-06-17T11:50:54.128Z,787.00
2023-06-17T11:51:54.173Z,776.00
2023-06-17T11:52:54.241Z,793.00
2023-06-17T11:53:54.291Z,788.00
2023-06-17T11:54:54.332Z,782.00
2023-06-17T11:55:54.384Z,789.00
2023-06-17T11:56:54.462Z,772.00
2023-06-17T11:57:54.508Z,786.00
2023-06-17T11:58:54.559Z,783.00
2023-06-17T11:59:54.574Z,781.00
2023-06-17T12:00:54.583Z,772.00
2023-06-17T12:01:54.680Z,761.00
2023-06-17T12:02:54.761Z,777.00
2023-06-17T12:03:54.784Z,778.00
2023-06-17T12:04:54.792Z,767.00
2023-06-17T12:05:54.820Z,775.00
2023-06-17T12:06:54.874Z,773.00
2023-06-17T12:07:54.866Z,770.00
2023-06-17T12:08:54.905Z,764.00
2023-06-17T12:09:54.949Z,766.00
2023-06-17T12:10:55.005Z,770.00
2023-06-17T12:11:55.002Z,773.00
2023-06-17T12:12:55.011Z,759.00
2023-06-17T12:13:55.039Z,774.00